sensor_id;sensor_type;location;lat;lon;timestamp;P1;durP1;ratioP1;P2;durP2;ratioP2
20743;SDS011;56303;52.160;-0.428;2023-04-01T00:01:15;5.03;;;3.60;;
20743;SDS011;56303;52.160;-0.428;2023-04-01T00:03:43;7.20;;;3.80;;
20743;SDS011;56303;52.160;-0.428;2023-04-01T00:06:13;4.63;;;3.20;;
20743;SDS011;56303;52.160;-0.428;2023-04-01T00:08:41;4.77;;;3.60;;
20743;SDS011;56303;52.160;-0.428;2023-04-01T00:11:08;4.67;;;3.63;;
20743;SDS011;56303;52.160;-0.428;2023-04-01T00:13:34;6.53;;;4.17;;
20743;SDS011;56303;52.160;-0.428;2023-04-01T00:16:02;6.73;;;3.97;;
20743;SDS011;56303;52.160;-0.428;2023-04-01T00:18:45;4.93;;;4.17;;
20743;SDS011;56303;52.160;-0.428;2023-04-01T00:21:14;5.80;;;4.30;;
20743;SDS011;56303;52.160;-0.428;2023-04-01T00:23:41;6.13;;;4.80;;
20743;SDS011;56303;52.160;-0.428;2023-04-01T00:26:08;7.57;;;5.37;;
20743;SDS011;56303;52.160;-0.428;2023-04-01T00:28:35;5.83;;;5.10;;
20743;SDS011;56303;52.160;-0.428;2023-04-01T00:31:06;7.70;;;4.40;;
20743;SDS011;56303;52.160;-0.428;2023-04-01T00:33:34;6.30;;;4.97;;
20743;SDS011;56303;52.160;-0.428;2023-04-01T00:38:55;8.77;;;5.10;;
20743;SDS011;56303;52.160;-0.428;2023-04-01T00:41:23;7.87;;;5.60;;
20743;SDS011;56303;52.160;-0.428;2023-04-01T00:43:52;6.40;;;5.37;;
20743;SDS011;56303;52.160;-0.428;2023-04-01T00:46:20;8.23;;;6.10;;
20743;SDS011;56303;52.160;-0.428;2023-04-01T00:48:48;9.80;;;6.40;;
20743;SDS011;56303;52.160;-0.428;2023-04-01T00:51:22;6.63;;;5.70;;
20743;SDS011;56303;52.160;-0.428;2023-04-01T00:53:52;5.90;;;4.83;;
20743;SDS011;56303;52.160;-0.428;2023-04-01T00:56:22;9.33;;;4.90;;
20743;SDS011;56303;52.160;-0.428;2023-04-01T00:58:58;6.33;;;4.97;;
20743;SDS011;56303;52.160;-0.428;2023-04-01T01:01:28;6.53;;;5.17;;
20743;SDS011;56303;52.160;-0.428;2023-04-01T01:03:56;8.17;;;5.10;;
20743;SDS011;56303;52.160;-0.428;2023-04-01T01:06:30;7.63;;;5.53;;
20743;SDS011;56303;52.160;-0.428;2023-04-01T01:09:16;10.27;;;6.23;;
20743;SDS011;56303;52.160;-0.428;2023-04-01T01:12:03;7.73;;;5.93;;
20743;SDS011;56303;52.160;-0.428;2023-04-01T01:14:55;8.60;;;6.90;;
20743;SDS011;56303;52.160;-0.428;2023-04-01T01:20:18;6.90;;;6.00;;
20743;SDS011;56303;52.160;-0.428;2023-04-01T01:31:19;6.93;;;4.83;;
20743;SDS011;56303;52.160;-0.428;2023-04-01T01:34:11;6.17;;;4.67;;
20743;SDS011;56303;52.160;-0.428;2023-04-01T01:36:53;5.50;;;4.30;;
20743;SDS011;56303;52.160;-0.428;2023-04-01T01:39:25;5.90;;;4.80;;
20743;SDS011;56303;52.160;-0.428;2023-04-01T01:41:57;6.33;;;4.33;;
20743;SDS011;56303;52.160;-0.428;2023-04-01T01:44:28;6.40;;;4.50;;
20743;SDS011;56303;52.160;-0.428;2023-04-01T01:46:56;7.30;;;4.67;;
20743;SDS011;56303;52.160;-0.428;2023-04-01T01:49:24;8.03;;;5.10;;
20743;SDS011;56303;52.160;-0.428;2023-04-01T01:51:52;7.17;;;5.00;;
20743;SDS011;56303;52.160;-0.428;2023-04-01T01:54:19;7.57;;;5.07;;
20743;SDS011;56303;52.160;-0.428;2023-04-01T01:56:46;6.03;;;4.23;;
20743;SDS011;56303;52.160;-0.428;2023-04-01T01:59:17;6.57;;;4.90;;
20743;SDS011;56303;52.160;-0.428;2023-04-01T02:01:48;7.40;;;5.33;;
20743;SDS011;56303;52.160;-0.428;2023-04-01T02:04:18;5.63;;;4.20;;
20743;SDS011;56303;52.160;-0.428;2023-04-01T02:06:49;6.20;;;4.17;;
20743;SDS011;56303;52.160;-0.428;2023-04-01T02:09:26;6.37;;;4.27;;
20743;SDS011;56303;52.160;-0.428;2023-04-01T02:11:57;4.70;;;3.70;;
20743;SDS011;56303;52.160;-0.428;2023-04-01T02:17:21;5.20;;;3.80;;
20743;SDS011;56303;52.160;-0.428;2023-04-01T02:19:50;4.20;;;2.77;;
20743;SDS011;56303;52.160;-0.428;2023-04-01T02:22:28;5.03;;;3.53;;
20743;SDS011;56303;52.160;-0.428;2023-04-01T02:24:59;4.83;;;2.77;;
20743;SDS011;56303;52.160;-0.428;2023-04-01T02:27:34;4.03;;;3.23;;
20743;SDS011;56303;52.160;-0.428;2023-04-01T02:30:02;3.93;;;3.00;;
20743;SDS011;56303;52.160;-0.428;2023-04-01T02:32:29;5.87;;;3.27;;
20743;SDS011;56303;52.160;-0.428;2023-04-01T02:34:59;3.93;;;2.87;;
20743;SDS011;56303;52.160;-0.428;2023-04-01T02:37:29;4.07;;;2.80;;
20743;SDS011;56303;52.160;-0.428;2023-04-01T02:40:00;4.23;;;3.27;;
20743;SDS011;56303;52.160;-0.428;2023-04-01T02:42:28;4.33;;;3.10;;
20743;SDS011;56303;52.160;-0.428;2023-04-01T02:44:55;4.33;;;3.20;;
20743;SDS011;56303;52.160;-0.428;2023-04-01T02:47:22;4.37;;;3.00;;
20743;SDS011;56303;52.160;-0.428;2023-04-01T02:49:48;6.13;;;3.10;;
20743;SDS011;56303;52.160;-0.428;2023-04-01T02:52:15;4.83;;;3.30;;
20743;SDS011;56303;52.160;-0.428;2023-04-01T02:54:42;4.50;;;3.53;;
20743;SDS011;56303;52.160;-0.428;2023-04-01T02:57:09;3.93;;;3.10;;
20743;SDS011;56303;52.160;-0.428;2023-04-01T02:59:36;5.90;;;3.60;;
20743;SDS011;56303;52.160;-0.428;2023-04-01T03:02:02;5.30;;;3.90;;
20743;SDS011;56303;52.160;-0.428;2023-04-01T03:04:29;5.97;;;4.80;;
20743;SDS011;56303;52.160;-0.428;2023-04-01T03:06:56;5.87;;;4.60;;
20743;SDS011;56303;52.160;-0.428;2023-04-01T03:09:23;5.97;;;4.70;;
20743;SDS011;56303;52.160;-0.428;2023-04-01T03:11:49;7.50;;;4.13;;
20743;SDS011;56303;52.160;-0.428;2023-04-01T03:14:16;5.40;;;3.93;;
20743;SDS011;56303;52.160;-0.428;2023-04-01T03:16:43;5.30;;;4.20;;
20743;SDS011;56303;52.160;-0.428;2023-04-01T03:19:10;5.13;;;3.70;;
20743;SDS011;56303;52.160;-0.428;2023-04-01T03:21:37;5.47;;;4.00;;
20743;SDS011;56303;52.160;-0.428;2023-04-01T03:24:04;5.77;;;4.23;;
20743;SDS011;56303;52.160;-0.428;2023-04-01T03:26:31;6.17;;;4.37;;
20743;SDS011;56303;52.160;-0.428;2023-04-01T03:28:58;6.83;;;4.53;;
20743;SDS011;56303;52.160;-0.428;2023-04-01T03:31:25;6.37;;;5.03;;
20743;SDS011;56303;52.160;-0.428;2023-04-01T03:33:52;8.57;;;5.90;;
20743;SDS011;56303;52.160;-0.428;2023-04-01T03:36:19;7.63;;;5.10;;
20743;SDS011;56303;52.160;-0.428;2023-04-01T03:38:46;7.03;;;5.03;;
20743;SDS011;56303;52.160;-0.428;2023-04-01T03:41:14;6.23;;;4.57;;
20743;SDS011;56303;52.160;-0.428;2023-04-01T03:43:41;6.33;;;4.60;;
20743;SDS011;56303;52.160;-0.428;2023-04-01T03:46:08;6.07;;;4.27;;
20743;SDS011;56303;52.160;-0.428;2023-04-01T03:48:35;7.40;;;4.97;;
20743;SDS011;56303;52.160;-0.428;2023-04-01T03:51:06;7.10;;;4.73;;
20743;SDS011;56303;52.160;-0.428;2023-04-01T03:53:33;6.30;;;4.43;;
20743;SDS011;56303;52.160;-0.428;2023-04-01T03:56:06;6.17;;;4.57;;
20743;SDS011;56303;52.160;-0.428;2023-04-01T03:58:34;7.30;;;5.20;;
20743;SDS011;56303;52.160;-0.428;2023-04-01T04:01:01;7.20;;;4.77;;
20743;SDS011;56303;52.160;-0.428;2023-04-01T04:03:28;6.73;;;5.37;;
20743;SDS011;56303;52.160;-0.428;2023-04-01T04:05:56;5.60;;;4.47;;
20743;SDS011;56303;52.160;-0.428;2023-04-01T04:08:23;7.07;;;5.10;;
20743;SDS011;56303;52.160;-0.428;2023-04-01T04:10:56;6.70;;;4.60;;
20743;SDS011;56303;52.160;-0.428;2023-04-01T04:13:22;7.57;;;4.90;;
20743;SDS011;56303;52.160;-0.428;2023-04-01T04:15:49;6.40;;;5.10;;
20743;SDS011;56303;52.160;-0.428;2023-04-01T04:18:16;7.20;;;5.43;;
20743;SDS011;56303;52.160;-0.428;2023-04-01T04:20:44;8.57;;;5.87;;
20743;SDS011;56303;52.160;-0.428;2023-04-01T04:23:13;8.00;;;5.77;;
20743;SDS011;56303;52.160;-0.428;2023-04-01T04:25:40;8.73;;;5.93;;
20743;SDS011;56303;52.160;-0.428;2023-04-01T04:28:06;8.03;;;6.50;;
20743;SDS011;56303;52.160;-0.428;2023-04-01T04:30:33;8.33;;;5.97;;
20743;SDS011;56303;52.160;-0.428;2023-04-01T04:33:00;6.73;;;5.23;;
20743;SDS011;56303;52.160;-0.428;2023-04-01T04:35:27;11.57;;;6.17;;
20743;SDS011;56303;52.160;-0.428;2023-04-01T04:37:54;8.17;;;5.57;;
20743;SDS011;56303;52.160;-0.428;2023-04-01T04:40:21;8.23;;;5.90;;
20743;SDS011;56303;52.160;-0.428;2023-04-01T04:42:48;10.07;;;6.33;;
20743;SDS011;56303;52.160;-0.428;2023-04-01T04:45:15;10.17;;;6.03;;
20743;SDS011;56303;52.160;-0.428;2023-04-01T04:47:41;7.03;;;5.20;;
20743;SDS011;56303;52.160;-0.428;2023-04-01T04:50:08;8.43;;;6.93;;
20743;SDS011;56303;52.160;-0.428;2023-04-01T04:52:36;9.87;;;6.87;;
20743;SDS011;56303;52.160;-0.428;2023-04-01T04:55:03;8.67;;;6.40;;
20743;SDS011;56303;52.160;-0.428;2023-04-01T04:57:30;7.67;;;6.13;;
20743;SDS011;56303;52.160;-0.428;2023-04-01T04:59:57;9.53;;;5.57;;
20743;SDS011;56303;52.160;-0.428;2023-04-01T05:02:23;11.33;;;6.60;;
20743;SDS011;56303;52.160;-0.428;2023-04-01T05:04:50;8.00;;;6.17;;
20743;SDS011;56303;52.160;-0.428;2023-04-01T05:07:17;7.47;;;5.77;;
20743;SDS011;56303;52.160;-0.428;2023-04-01T05:09:44;11.07;;;7.03;;
20743;SDS011;56303;52.160;-0.428;2023-04-01T05:12:11;10.30;;;7.47;;
20743;SDS011;56303;52.160;-0.428;2023-04-01T05:14:39;11.20;;;6.87;;
20743;SDS011;56303;52.160;-0.428;2023-04-01T05:17:09;11.43;;;6.57;;
20743;SDS011;56303;52.160;-0.428;2023-04-01T05:19:37;11.03;;;7.23;;
20743;SDS011;56303;52.160;-0.428;2023-04-01T05:22:05;9.53;;;5.97;;
20743;SDS011;56303;52.160;-0.428;2023-04-01T05:24:32;10.10;;;7.20;;
20743;SDS011;56303;52.160;-0.428;2023-04-01T05:26:59;12.03;;;7.60;;
20743;SDS011;56303;52.160;-0.428;2023-04-01T05:29:26;9.90;;;7.03;;
20743;SDS011;56303;52.160;-0.428;2023-04-01T05:31:53;13.43;;;7.90;;
20743;SDS011;56303;52.160;-0.428;2023-04-01T05:34:19;10.37;;;7.33;;
20743;SDS011;56303;52.160;-0.428;2023-04-01T05:36:46;9.00;;;6.80;;
20743;SDS011;56303;52.160;-0.428;2023-04-01T05:39:13;10.07;;;6.67;;
20743;SDS011;56303;52.160;-0.428;2023-04-01T05:41:40;13.20;;;7.27;;
20743;SDS011;56303;52.160;-0.428;2023-04-01T05:44:07;13.00;;;7.13;;
20743;SDS011;56303;52.160;-0.428;2023-04-01T05:46:37;11.70;;;7.60;;
20743;SDS011;56303;52.160;-0.428;2023-04-01T05:49:04;12.23;;;7.73;;
20743;SDS011;56303;52.160;-0.428;2023-04-01T05:51:31;10.97;;;7.13;;
20743;SDS011;56303;52.160;-0.428;2023-04-01T05:53:58;12.33;;;7.87;;
20743;SDS011;56303;52.160;-0.428;2023-04-01T05:56:24;11.87;;;8.67;;
20743;SDS011;56303;52.160;-0.428;2023-04-01T05:58:52;12.80;;;8.60;;
20743;SDS011;56303;52.160;-0.428;2023-04-01T06:01:20;13.13;;;9.03;;
20743;SDS011;56303;52.160;-0.428;2023-04-01T06:03:47;12.20;;;8.53;;
20743;SDS011;56303;52.160;-0.428;2023-04-01T06:06:15;12.97;;;8.93;;
20743;SDS011;56303;52.160;-0.428;2023-04-01T06:08:46;13.37;;;9.37;;
20743;SDS011;56303;52.160;-0.428;2023-04-01T06:16:44;15.53;;;9.90;;
20743;SDS011;56303;52.160;-0.428;2023-04-01T06:25:31;16.23;;;10.27;;
20743;SDS011;56303;52.160;-0.428;2023-04-01T06:39:30;14.37;;;10.27;;
20743;SDS011;56303;52.160;-0.428;2023-04-01T06:45:00;11.80;;;9.23;;
20743;SDS011;56303;52.160;-0.428;2023-04-01T06:55:30;14.40;;;9.80;;
20743;SDS011;56303;52.160;-0.428;2023-04-01T06:58:27;13.43;;;9.53;;
20743;SDS011;56303;52.160;-0.428;2023-04-01T07:01:42;13.03;;;9.60;;
20743;SDS011;56303;52.160;-0.428;2023-04-01T07:03:57;11.47;;;8.60;;
20743;SDS011;56303;52.160;-0.428;2023-04-01T07:06:38;15.00;;;8.83;;
20743;SDS011;56303;52.160;-0.428;2023-04-01T07:09:18;13.10;;;8.47;;
20743;SDS011;56303;52.160;-0.428;2023-04-01T07:11:47;11.40;;;8.60;;
20743;SDS011;56303;52.160;-0.428;2023-04-01T07:14:24;12.10;;;8.33;;
20743;SDS011;56303;52.160;-0.428;2023-04-01T07:17:15;11.57;;;8.77;;
20743;SDS011;56303;52.160;-0.428;2023-04-01T07:19:58;13.53;;;8.30;;
20743;SDS011;56303;52.160;-0.428;2023-04-01T07:22:35;11.60;;;8.67;;
20743;SDS011;56303;52.160;-0.428;2023-04-01T07:27:56;10.37;;;7.63;;
20743;SDS011;56303;52.160;-0.428;2023-04-01T07:30:28;13.13;;;7.70;;
20743;SDS011;56303;52.160;-0.428;2023-04-01T07:33:21;9.00;;;6.87;;
20743;SDS011;56303;52.160;-0.428;2023-04-01T07:35:59;7.97;;;6.17;;
20743;SDS011;56303;52.160;-0.428;2023-04-01T07:50:18;8.70;;;5.93;;
20743;SDS011;56303;52.160;-0.428;2023-04-01T08:09:06;9.40;;;5.90;;
20743;SDS011;56303;52.160;-0.428;2023-04-01T08:11:44;8.67;;;5.13;;
20743;SDS011;56303;52.160;-0.428;2023-04-01T08:14:21;9.07;;;6.20;;
20743;SDS011;56303;52.160;-0.428;2023-04-01T08:22:29;10.47;;;6.23;;
20743;SDS011;56303;52.160;-0.428;2023-04-01T08:25:02;12.07;;;6.73;;
20743;SDS011;56303;52.160;-0.428;2023-04-01T08:30:06;9.00;;;6.07;;
20743;SDS011;56303;52.160;-0.428;2023-04-01T08:32:53;7.93;;;5.83;;
20743;SDS011;56303;52.160;-0.428;2023-04-01T08:36:12;11.73;;;6.57;;
20743;SDS011;56303;52.160;-0.428;2023-04-01T08:38:23;10.20;;;6.47;;
20743;SDS011;56303;52.160;-0.428;2023-04-01T08:43:59;9.27;;;4.60;;
20743;SDS011;56303;52.160;-0.428;2023-04-01T08:46:47;8.57;;;5.07;;
20743;SDS011;56303;52.160;-0.428;2023-04-01T08:57:56;12.30;;;6.53;;
20743;SDS011;56303;52.160;-0.428;2023-04-01T09:00:37;10.37;;;5.87;;
20743;SDS011;56303;52.160;-0.428;2023-04-01T09:06:05;11.43;;;4.90;;
20743;SDS011;56303;52.160;-0.428;2023-04-01T09:14:12;9.47;;;5.63;;
20743;SDS011;56303;52.160;-0.428;2023-04-01T09:28:19;8.77;;;6.00;;
20743;SDS011;56303;52.160;-0.428;2023-04-01T09:31:04;11.50;;;6.10;;
20743;SDS011;56303;52.160;-0.428;2023-04-01T09:36:43;10.17;;;5.17;;
20743;SDS011;56303;52.160;-0.428;2023-04-01T09:39:34;12.00;;;5.50;;
20743;SDS011;56303;52.160;-0.428;2023-04-01T09:50:20;8.27;;;4.77;;
20743;SDS011;56303;52.160;-0.428;2023-04-01T09:53:12;10.90;;;5.37;;
20743;SDS011;56303;52.160;-0.428;2023-04-01T10:04:06;11.60;;;5.73;;
20743;SDS011;56303;52.160;-0.428;2023-04-01T10:13:14;8.63;;;4.70;;
20743;SDS011;56303;52.160;-0.428;2023-04-01T10:27:06;7.63;;;4.30;;
20743;SDS011;56303;52.160;-0.428;2023-04-01T10:35:33;5.87;;;3.43;;
20743;SDS011;56303;52.160;-0.428;2023-04-01T11:10:40;7.80;;;5.20;;
20743;SDS011;56303;52.160;-0.428;2023-04-01T11:18:41;7.83;;;2.83;;
20743;SDS011;56303;52.160;-0.428;2023-04-01T11:31:58;6.57;;;4.60;;
20743;SDS011;56303;52.160;-0.428;2023-04-01T11:40:22;8.17;;;5.40;;
20743;SDS011;56303;52.160;-0.428;2023-04-01T11:42:57;11.33;;;6.20;;
20743;SDS011;56303;52.160;-0.428;2023-04-01T11:53:16;11.63;;;7.00;;
20743;SDS011;56303;52.160;-0.428;2023-04-01T12:07:05;10.87;;;7.00;;
20743;SDS011;56303;52.160;-0.428;2023-04-01T12:15:13;10.23;;;7.43;;
20743;SDS011;56303;52.160;-0.428;2023-04-01T12:21:14;13.07;;;7.27;;
20743;SDS011;56303;52.160;-0.428;2023-04-01T12:23:51;9.60;;;7.50;;
20743;SDS011;56303;52.160;-0.428;2023-04-01T12:26:52;12.53;;;8.13;;
20743;SDS011;56303;52.160;-0.428;2023-04-01T12:32:19;10.77;;;7.10;;
20743;SDS011;56303;52.160;-0.428;2023-04-01T12:46:04;8.03;;;5.63;;
20743;SDS011;56303;52.160;-0.428;2023-04-01T12:51:23;8.83;;;6.60;;
20743;SDS011;56303;52.160;-0.428;2023-04-01T12:59:56;9.13;;;6.43;;
20743;SDS011;56303;52.160;-0.428;2023-04-01T13:02:51;12.50;;;7.07;;
20743;SDS011;56303;52.160;-0.428;2023-04-01T13:05:44;8.40;;;5.90;;
20743;SDS011;56303;52.160;-0.428;2023-04-01T13:10:59;8.20;;;6.40;;
20743;SDS011;56303;52.160;-0.428;2023-04-01T13:16:25;10.90;;;6.27;;
20743;SDS011;56303;52.160;-0.428;2023-04-01T13:19:00;6.77;;;4.77;;
20743;SDS011;56303;52.160;-0.428;2023-04-01T13:29:36;9.57;;;6.53;;
20743;SDS011;56303;52.160;-0.428;2023-04-01T13:40:55;8.77;;;5.57;;
20743;SDS011;56303;52.160;-0.428;2023-04-01T13:43:50;10.00;;;5.83;;
20743;SDS011;56303;52.160;-0.428;2023-04-01T13:46:28;7.30;;;4.87;;
20743;SDS011;56303;52.160;-0.428;2023-04-01T13:52:19;11.70;;;5.47;;
20743;SDS011;56303;52.160;-0.428;2023-04-01T13:55:30;8.33;;;4.97;;
20743;SDS011;56303;52.160;-0.428;2023-04-01T14:15:18;6.33;;;4.57;;
20743;SDS011;56303;52.160;-0.428;2023-04-01T14:17:59;6.70;;;4.87;;
20743;SDS011;56303;52.160;-0.428;2023-04-01T14:37:27;6.13;;;3.70;;
20743;SDS011;56303;52.160;-0.428;2023-04-01T14:40:27;5.87;;;4.17;;
20743;SDS011;56303;52.160;-0.428;2023-04-01T14:45:46;5.83;;;3.60;;
20743;SDS011;56303;52.160;-0.428;2023-04-01T14:48:32;5.27;;;3.37;;
20743;SDS011;56303;52.160;-0.428;2023-04-01T14:51:16;4.43;;;3.03;;
20743;SDS011;56303;52.160;-0.428;2023-04-01T14:56:39;6.70;;;3.50;;
20743;SDS011;56303;52.160;-0.428;2023-04-01T14:59:10;5.07;;;3.47;;
20743;SDS011;56303;52.160;-0.428;2023-04-01T15:07:21;6.23;;;3.70;;
20743;SDS011;56303;52.160;-0.428;2023-04-01T15:26:55;4.53;;;3.23;;
20743;SDS011;56303;52.160;-0.428;2023-04-01T15:32:56;7.40;;;3.47;;
20743;SDS011;56303;52.160;-0.428;2023-04-01T15:43:45;10.63;;;3.33;;
20743;SDS011;56303;52.160;-0.428;2023-04-01T15:54:54;4.03;;;2.10;;
20743;SDS011;56303;52.160;-0.428;2023-04-01T16:00:33;3.80;;;2.47;;
20743;SDS011;56303;52.160;-0.428;2023-04-01T16:06:43;2.10;;;1.90;;
20743;SDS011;56303;52.160;-0.428;2023-04-01T16:17:24;3.20;;;1.90;;
20743;SDS011;56303;52.160;-0.428;2023-04-01T16:20:02;2.27;;;1.80;;
20743;SDS011;56303;52.160;-0.428;2023-04-01T16:22:40;4.00;;;2.27;;
20743;SDS011;56303;52.160;-0.428;2023-04-01T16:35:49;5.10;;;2.97;;
20743;SDS011;56303;52.160;-0.428;2023-04-01T16:38:45;4.30;;;3.00;;
20743;SDS011;56303;52.160;-0.428;2023-04-01T16:41:32;6.10;;;3.17;;
20743;SDS011;56303;52.160;-0.428;2023-04-01T16:44:10;4.77;;;2.87;;
20743;SDS011;56303;52.160;-0.428;2023-04-01T16:46:46;5.20;;;3.80;;
20743;SDS011;56303;52.160;-0.428;2023-04-01T16:49:37;5.30;;;3.10;;
20743;SDS011;56303;52.160;-0.428;2023-04-01T16:54:42;4.37;;;3.00;;
20743;SDS011;56303;52.160;-0.428;2023-04-01T16:57:27;4.90;;;3.20;;
20743;SDS011;56303;52.160;-0.428;2023-04-01T17:00:15;5.70;;;3.30;;
20743;SDS011;56303;52.160;-0.428;2023-04-01T17:05:43;4.60;;;3.33;;
20743;SDS011;56303;52.160;-0.428;2023-04-01T17:11:18;6.70;;;3.40;;
20743;SDS011;56303;52.160;-0.428;2023-04-01T17:13:55;4.63;;;3.40;;
20743;SDS011;56303;52.160;-0.428;2023-04-01T17:27:15;6.97;;;5.10;;
20743;SDS011;56303;52.160;-0.428;2023-04-01T17:32:56;8.17;;;4.43;;
20743;SDS011;56303;52.160;-0.428;2023-04-01T17:41:01;7.37;;;4.00;;
20743;SDS011;56303;52.160;-0.428;2023-04-01T17:59:38;6.63;;;3.83;;
20743;SDS011;56303;52.160;-0.428;2023-04-01T18:02:32;10.70;;;4.40;;
20743;SDS011;56303;52.160;-0.428;2023-04-01T18:08:55;7.97;;;4.37;;
20743;SDS011;56303;52.160;-0.428;2023-04-01T18:11:04;9.27;;;4.50;;
20743;SDS011;56303;52.160;-0.428;2023-04-01T18:16:33;5.87;;;4.90;;
20743;SDS011;56303;52.160;-0.428;2023-04-01T18:21:45;7.17;;;5.00;;
20743;SDS011;56303;52.160;-0.428;2023-04-01T18:24:26;7.07;;;5.00;;
20743;SDS011;56303;52.160;-0.428;2023-04-01T18:27:15;7.87;;;5.10;;
20743;SDS011;56303;52.160;-0.428;2023-04-01T18:30:07;7.33;;;5.10;;
20743;SDS011;56303;52.160;-0.428;2023-04-01T18:32:41;6.07;;;4.80;;
20743;SDS011;56303;52.160;-0.428;2023-04-01T18:35:14;8.23;;;4.63;;
20743;SDS011;56303;52.160;-0.428;2023-04-01T18:40:35;5.80;;;4.57;;
20743;SDS011;56303;52.160;-0.428;2023-04-01T18:46:05;6.03;;;3.77;;
20743;SDS011;56303;52.160;-0.428;2023-04-01T18:48:48;7.07;;;3.67;;
20743;SDS011;56303;52.160;-0.428;2023-04-01T18:51:25;3.53;;;2.73;;
20743;SDS011;56303;52.160;-0.428;2023-04-01T18:54:04;3.83;;;2.00;;
20743;SDS011;56303;52.160;-0.428;2023-04-01T18:56:58;2.10;;;1.83;;
20743;SDS011;56303;52.160;-0.428;2023-04-01T18:59:30;1.50;;;1.40;;
20743;SDS011;56303;52.160;-0.428;2023-04-01T19:07:47;3.03;;;1.60;;
20743;SDS011;56303;52.160;-0.428;2023-04-01T19:22:18;3.20;;;2.47;;
20743;SDS011;56303;52.160;-0.428;2023-04-01T19:25:09;6.70;;;2.73;;
20743;SDS011;56303;52.160;-0.428;2023-04-01T19:28:07;5.37;;;2.87;;
20743;SDS011;56303;52.160;-0.428;2023-04-01T19:34:02;5.50;;;2.80;;
20743;SDS011;56303;52.160;-0.428;2023-04-01T19:42:03;4.73;;;2.73;;
20743;SDS011;56303;52.160;-0.428;2023-04-01T19:44:57;5.27;;;2.27;;
20743;SDS011;56303;52.160;-0.428;2023-04-01T19:53:23;10.53;;;5.83;;
20743;SDS011;56303;52.160;-0.428;2023-04-01T19:56:02;12.60;;;8.10;;
20743;SDS011;56303;52.160;-0.428;2023-04-01T20:01:09;11.10;;;8.27;;
20743;SDS011;56303;52.160;-0.428;2023-04-01T20:03:50;9.43;;;5.27;;
20743;SDS011;56303;52.160;-0.428;2023-04-01T20:12:06;8.33;;;4.50;;
20743;SDS011;56303;52.160;-0.428;2023-04-01T20:14:56;6.40;;;4.00;;
20743;SDS011;56303;52.160;-0.428;2023-04-01T20:17:30;7.27;;;4.03;;
20743;SDS011;56303;52.160;-0.428;2023-04-01T20:27:51;3.47;;;2.40;;
20743;SDS011;56303;52.160;-0.428;2023-04-01T20:30:38;8.07;;;2.90;;
20743;SDS011;56303;52.160;-0.428;2023-04-01T20:39:17;4.53;;;2.37;;
20743;SDS011;56303;52.160;-0.428;2023-04-01T20:42:03;4.63;;;2.63;;
20743;SDS011;56303;52.160;-0.428;2023-04-01T20:53:04;5.93;;;2.30;;
20743;SDS011;56303;52.160;-0.428;2023-04-01T21:01:40;6.00;;;2.80;;
20743;SDS011;56303;52.160;-0.428;2023-04-01T21:12:25;3.60;;;2.00;;
20743;SDS011;56303;52.160;-0.428;2023-04-01T21:23:41;2.77;;;1.93;;
20743;SDS011;56303;52.160;-0.428;2023-04-01T21:29:33;4.00;;;2.10;;
20743;SDS011;56303;52.160;-0.428;2023-04-01T21:43:12;4.63;;;2.60;;
20743;SDS011;56303;52.160;-0.428;2023-04-01T22:05:20;4.17;;;2.20;;
20743;SDS011;56303;52.160;-0.428;2023-04-01T22:08:06;4.00;;;2.93;;
20743;SDS011;56303;52.160;-0.428;2023-04-01T22:24:37;5.47;;;2.90;;
20743;SDS011;56303;52.160;-0.428;2023-04-01T22:32:34;3.63;;;2.73;;
20743;SDS011;56303;52.160;-0.428;2023-04-01T22:43:12;5.17;;;2.10;;
20743;SDS011;56303;52.160;-0.428;2023-04-01T22:45:56;3.10;;;1.90;;
20743;SDS011;56303;52.160;-0.428;2023-04-01T22:48:29;7.17;;;2.00;;
20743;SDS011;56303;52.160;-0.428;2023-04-01T22:56:36;2.73;;;1.53;;
20743;SDS011;56303;52.160;-0.428;2023-04-01T22:59:08;3.70;;;1.43;;
20743;SDS011;56303;52.160;-0.428;2023-04-01T23:02:04;2.33;;;2.13;;
20743;SDS011;56303;52.160;-0.428;2023-04-01T23:04:39;3.83;;;2.00;;
20743;SDS011;56303;52.160;-0.428;2023-04-01T23:10:03;4.03;;;1.73;;
20743;SDS011;56303;52.160;-0.428;2023-04-01T23:12:38;2.10;;;1.63;;
20743;SDS011;56303;52.160;-0.428;2023-04-01T23:15:08;4.03;;;1.57;;
20743;SDS011;56303;52.160;-0.428;2023-04-01T23:26:07;4.40;;;2.27;;
20743;SDS011;56303;52.160;-0.428;2023-04-01T23:28:43;4.93;;;3.13;;
20743;SDS011;56303;52.160;-0.428;2023-04-01T23:34:03;2.83;;;2.07;;
20743;SDS011;56303;52.160;-0.428;2023-04-01T23:36:49;5.20;;;2.60;;
20743;SDS011;56303;52.160;-0.428;2023-04-01T23:39:22;5.33;;;2.57;;
20743;SDS011;56303;52.160;-0.428;2023-04-01T23:41:54;4.07;;;2.60;;
20743;SDS011;56303;52.160;-0.428;2023-04-01T23:44:24;4.90;;;2.93;;
20743;SDS011;56303;52.160;-0.428;2023-04-01T23:46:53;6.33;;;2.87;;
20743;SDS011;56303;52.160;-0.428;2023-04-01T23:49:21;6.17;;;3.40;;
20743;SDS011;56303;52.160;-0.428;2023-04-01T23:57:26;5.30;;;3.50;;
